createdAt,value
2023-05-05T00:01:38.727Z,100582.72
2023-05-05T00:04:41.198Z,100579.19
2023-05-05T00:07:43.477Z,100589.41
2023-05-05T00:10:46.535Z,100581.66
2023-05-05T00:13:48.937Z,100585.78
2023-05-05T00:16:51.215Z,100594.28
2023-05-05T00:19:53.529Z,100594.28
2023-05-05T00:22:55.828Z,100595.09
2023-05-05T00:25:58.103Z,100593.72
2023-05-05T00:29:00.356Z,100578.97
2023-05-05T00:32:02.844Z,100593.38
2023-05-05T00:35:06.312Z,100590.69
2023-05-05T00:38:08.648Z,100583.50
2023-05-05T00:41:11.210Z,100583.97
2023-05-05T00:44:13.553Z,100585.41
2023-05-05T00:47:17.275Z,100587.78
2023-05-05T00:50:30.194Z,100586.06
2023-05-05T00:53:32.661Z,100585.63
2023-05-05T00:56:34.908Z,100585.97
2023-05-05T00:59:37.541Z,100594.91
2023-05-05T01:02:40.580Z,100592.63
2023-05-05T01:05:51.539Z,100584.06
2023-05-05T01:09:01.866Z,100589.75
2023-05-05T01:12:07.118Z,100593.16
2023-05-05T01:15:27.678Z,100577.22
2023-05-05T01:18:49.923Z,100582.91
2023-05-05T01:21:57.655Z,100590.13
2023-05-05T01:25:12.767Z,100575.00
2023-05-05T01:28:24.162Z,100582.22
2023-05-05T01:31:54.155Z,100583.59
2023-05-05T01:35:00.755Z,100584.94
2023-05-05T01:38:07.032Z,100583.19
2023-05-05T01:41:16.123Z,100581.69
2023-05-05T01:44:19.997Z,100576.69
2023-05-05T01:47:23.113Z,100564.59
2023-05-05T01:50:28.082Z,100579.19
2023-05-05T01:53:31.642Z,100577.16
2023-05-05T01:56:35.202Z,100570.66
2023-05-05T01:59:40.973Z,100572.69
2023-05-05T02:02:45.793Z,100576.66
2023-05-05T02:05:48.948Z,100567.66
2023-05-05T02:08:51.659Z,100571.41
2023-05-05T02:11:54.478Z,100562.69
2023-05-05T02:14:58.834Z,100557.22
2023-05-05T02:18:02.367Z,100558.63
2023-05-05T02:21:05.223Z,100585.25
2023-05-05T02:24:08.683Z,100566.41
2023-05-05T02:27:11.960Z,100557.91
2023-05-05T02:30:16.288Z,100570.00
2023-05-05T02:33:20.405Z,100574.91
2023-05-05T02:36:28.835Z,100570.38
2023-05-05T02:39:43.807Z,100566.75
2023-05-05T02:42:53.574Z,100557.56
2023-05-05T02:45:58.858Z,100563.94
2023-05-05T02:49:02.733Z,100578.75
2023-05-05T02:52:05.179Z,100578.97
2023-05-05T02:55:11.452Z,100576.28
2023-05-05T02:58:24.998Z,100582.47
2023-05-05T03:01:51.546Z,100580.03
2023-05-05T03:05:02.773Z,100581.63
2023-05-05T03:08:50.547Z,100575.47
2023-05-05T03:12:05.886Z,100582.81
2023-05-05T03:15:18.460Z,100576.28
2023-05-05T03:18:22.872Z,100576.16
2023-05-05T03:21:32.725Z,100581.06
2023-05-05T03:24:35.161Z,100580.00
2023-05-05T03:27:42.547Z,100579.53
2023-05-05T03:30:47.198Z,100585.81
2023-05-05T03:33:50.964Z,100579.41
2023-05-05T03:36:56.427Z,100569.63
2023-05-05T03:39:58.971Z,100576.09
2023-05-05T03:43:01.468Z,100572.19
2023-05-05T03:46:04.255Z,100570.81
2023-05-05T03:49:08.323Z,100585.25
2023-05-05T03:52:12.180Z,100581.78
2023-05-05T03:55:16.163Z,100562.56
2023-05-05T03:58:18.999Z,100576.41
2023-05-05T04:01:21.429Z,100569.78
2023-05-05T04:04:23.950Z,100577.81
2023-05-05T04:07:27.441Z,100573.38
2023-05-05T04:10:30.661Z,100581.78
2023-05-05T04:13:33.694Z,100592.38
2023-05-05T04:16:36.360Z,100586.88
2023-05-05T04:19:38.747Z,100588.72
2023-05-05T04:22:42.116Z,100600.25
2023-05-05T04:25:45.763Z,100592.69
2023-05-05T04:28:48.661Z,100587.78
2023-05-05T04:31:53.953Z,100581.25
2023-05-05T04:34:56.477Z,100589.34
2023-05-05T04:37:59.646Z,100589.09
2023-05-05T04:41:06.454Z,100595.94
2023-05-05T04:44:09.744Z,100591.38
2023-05-05T04:47:14.486Z,100600.47
2023-05-05T04:50:17.460Z,100620.31
2023-05-05T04:53:19.813Z,100610.41
2023-05-05T04:56:22.125Z,100611.66
2023-05-05T04:59:24.442Z,100611.47
2023-05-05T05:02:27.152Z,100627.38
2023-05-05T05:05:29.971Z,100617.13
2023-05-05T05:08:32.447Z,100619.09
2023-05-05T05:11:35.469Z,100617.25
2023-05-05T05:14:38.568Z,100637.34
2023-05-05T05:17:41.014Z,100623.91
2023-05-05T05:20:43.844Z,100629.19
2023-05-05T05:23:47.396Z,100626.25
2023-05-05T05:26:49.842Z,100623.81
2023-05-05T05:29:52.435Z,100630.00
2023-05-05T05:32:54.864Z,100620.22
2023-05-05T05:35:57.445Z,100629.44
2023-05-05T05:39:00.801Z,100632.06
2023-05-05T05:42:04.692Z,100621.13
2023-05-05T05:45:08.327Z,100637.81
2023-05-05T05:48:11.618Z,100642.66
2023-05-05T05:51:14.141Z,100644.56
2023-05-05T05:54:16.835Z,100637.69
2023-05-05T05:57:19.309Z,100649.53
2023-05-05T06:00:22.069Z,100639.25
2023-05-05T06:03:31.755Z,100644.13
2023-05-05T06:06:34.395Z,100636.78
2023-05-05T06:09:36.714Z,100645.88
2023-05-05T06:12:39.089Z,100653.56
2023-05-05T06:15:41.477Z,100635.78
2023-05-05T06:18:44.419Z,100631.84
2023-05-05T06:21:46.732Z,100631.03
2023-05-05T06:24:48.973Z,100635.91
2023-05-05T06:27:52.246Z,100632.22
2023-05-05T06:30:54.523Z,100634.41
2023-05-05T06:33:56.722Z,100626.28
2023-05-05T06:36:59.003Z,100612.75
2023-05-05T06:40:01.291Z,100612.22
2023-05-05T06:43:03.586Z,100622.44
2023-05-05T06:46:11.310Z,100612.13
2023-05-05T06:49:13.522Z,100613.63
2023-05-05T06:52:15.840Z,100622.97
2023-05-05T06:55:18.491Z,100620.53
2023-05-05T06:58:21.591Z,100612.03
2023-05-05T07:01:23.970Z,100615.25
2023-05-05T07:04:26.935Z,100615.41
2023-05-05T07:07:29.307Z,100621.03
2023-05-05T07:10:32.024Z,100624.00
2023-05-05T07:13:34.325Z,100617.03
2023-05-05T07:16:37.261Z,100613.66
2023-05-05T07:19:39.671Z,100604.91
2023-05-05T07:22:42.331Z,100606.97
2023-05-05T07:25:44.669Z,100603.78
2023-05-05T07:28:46.933Z,100601.84
2023-05-05T07:31:49.316Z,100597.94
2023-05-05T07:34:51.747Z,100612.09
2023-05-05T07:37:53.986Z,100592.47
2023-05-05T07:40:56.283Z,100595.75
2023-05-05T07:43:58.541Z,100609.84
2023-05-05T07:47:01.159Z,100602.69
2023-05-05T07:50:03.703Z,100606.16
2023-05-05T07:53:14.370Z,100616.00
2023-05-05T07:56:17.273Z,100604.31
2023-05-05T07:59:19.553Z,100604.50
2023-05-05T08:02:22.035Z,100602.81
2023-05-05T08:05:24.404Z,100619.19
2023-05-05T08:08:27.092Z,100610.78
2023-05-05T08:11:29.718Z,100604.28
2023-05-05T08:14:33.100Z,100605.81
2023-05-05T08:17:52.313Z,100600.25
2023-05-05T08:20:54.856Z,100582.09
2023-05-05T08:23:57.314Z,100587.78
2023-05-05T08:26:59.565Z,100598.44
2023-05-05T08:30:03.143Z,100602.06
2023-05-05T08:33:05.774Z,100603.47
2023-05-05T08:36:08.920Z,100598.47
2023-05-05T08:39:11.375Z,100601.69
2023-05-05T08:42:22.314Z,100606.31
2023-05-05T08:45:32.247Z,100602.06
2023-05-05T08:48:35.760Z,100611.75
2023-05-05T08:51:42.189Z,100592.38
2023-05-05T08:55:08.266Z,100586.56
2023-05-05T08:58:13.749Z,100592.38
2023-05-05T09:01:18.072Z,100588.28
2023-05-05T09:04:20.780Z,100580.09
2023-05-05T09:07:26.006Z,100575.66
2023-05-05T09:10:50.157Z,100596.97
2023-05-05T09:13:52.446Z,100561.28
2023-05-05T09:16:54.794Z,100574.19
2023-05-05T09:20:04.940Z,100582.50
2023-05-05T09:23:09.652Z,100581.38
2023-05-05T09:26:11.958Z,100566.75
2023-05-05T09:29:19.178Z,100561.44
2023-05-05T09:32:21.678Z,100560.72
2023-05-05T09:35:23.962Z,100561.88
2023-05-05T09:38:26.231Z,100552.66
2023-05-05T09:41:42.565Z,100552.28
2023-05-05T09:44:44.814Z,100545.53
2023-05-05T09:47:47.929Z,100551.59
2023-05-05T09:50:50.510Z,100536.75
2023-05-05T09:53:52.773Z,100528.59
2023-05-05T09:56:56.452Z,100534.84
2023-05-05T10:00:01.261Z,100535.41
2023-05-05T10:03:03.806Z,100549.25
2023-05-05T10:06:07.918Z,100532.94
2023-05-05T10:09:10.856Z,100525.56
2023-05-05T10:12:13.143Z,100535.28
2023-05-05T10:15:16.543Z,100525.75
2023-05-05T10:18:27.112Z,100527.34
2023-05-05T10:21:33.568Z,100514.47
2023-05-05T10:25:12.668Z,100519.72
2023-05-05T10:28:19.487Z,100513.66
2023-05-05T10:31:39.875Z,100510.25
2023-05-05T10:34:51.431Z,100520.38
2023-05-05T10:37:54.912Z,100517.84
2023-05-05T10:40:59.852Z,100510.47
2023-05-05T10:44:04.448Z,100499.25
2023-05-05T10:47:07.839Z,100494.22
2023-05-05T10:50:39.013Z,100490.97
2023-05-05T10:54:00.959Z,100492.09
2023-05-05T10:57:05.001Z,100479.47
2023-05-05T11:00:10.534Z,100474.78
2023-05-05T11:03:19.493Z,100482.38
2023-05-05T11:06:21.824Z,100471.41
2023-05-05T11:09:28.301Z,100468.69
2023-05-05T11:12:32.065Z,100464.91
2023-05-05T11:15:37.654Z,100473.09
2023-05-05T11:18:44.419Z,100449.66
2023-05-05T11:22:16.681Z,100449.00
2023-05-05T11:25:37.760Z,100461.56
2023-05-05T11:28:58.408Z,100451.75
2023-05-05T11:32:14.420Z,100449.44
2023-05-05T11:35:16.878Z,100447.81
2023-05-05T11:38:19.980Z,100437.41
2023-05-05T11:41:34.124Z,100437.38
2023-05-05T11:44:37.742Z,100429.19
2023-05-05T11:47:40.115Z,100424.34
2023-05-05T11:50:42.381Z,100426.59
2023-05-05T11:53:49.497Z,100428.78
2023-05-05T11:57:09.103Z,100424.97
2023-05-05T12:00:12.189Z,100416.63
2023-05-05T12:03:14.796Z,100419.53
2023-05-05T12:06:17.219Z,100415.25
2023-05-05T12:09:21.085Z,100416.63
2023-05-05T12:12:40.195Z,100420.06
2023-05-05T12:15:42.637Z,100409.09
2023-05-05T12:18:44.894Z,100399.56
2023-05-05T12:21:47.190Z,100406.66
2023-05-05T12:25:01.155Z,100402.69
2023-05-05T12:28:03.521Z,100393.22
2023-05-05T12:31:05.870Z,100392.19
2023-05-05T12:34:11.981Z,100385.97
2023-05-05T12:37:16.392Z,100386.00
2023-05-05T12:40:42.159Z,100395.56
2023-05-05T12:43:44.489Z,100380.22
2023-05-05T12:46:47.905Z,100377.72
2023-05-05T12:49:51.645Z,100385.59
2023-05-05T12:52:54.370Z,100369.22
2023-05-05T12:55:56.616Z,100366.16
2023-05-05T12:58:59.433Z,100362.59
2023-05-05T13:02:02.437Z,100352.09
2023-05-05T13:05:05.140Z,100345.38
2023-05-05T13:08:07.411Z,100349.66
2023-05-05T13:11:09.647Z,100343.81
2023-05-05T13:14:11.974Z,100344.16
2023-05-05T13:17:14.661Z,100344.38
2023-05-05T13:20:19.141Z,100335.84
2023-05-05T13:23:21.406Z,100324.75
2023-05-05T13:26:24.948Z,100340.53
2023-05-05T13:29:31.415Z,100333.13
2023-05-05T13:32:33.947Z,100322.66
2023-05-05T13:35:36.370Z,100318.75
2023-05-05T13:38:38.643Z,100324.16
2023-05-05T13:41:40.966Z,100316.09
2023-05-05T13:44:43.242Z,100314.09
2023-05-05T13:47:45.717Z,100308.97
2023-05-05T13:50:48.472Z,100314.13
2023-05-05T13:53:50.959Z,100308.88
2023-05-05T13:56:53.262Z,100295.66
2023-05-05T13:59:55.520Z,100311.41
2023-05-05T14:02:57.801Z,100308.31
2023-05-05T14:06:00.067Z,100302.38
2023-05-05T14:09:05.794Z,100302.88
2023-05-05T14:12:08.430Z,100303.81
2023-05-05T14:15:11.853Z,100304.97
2023-05-05T14:18:14.223Z,100300.34
2023-05-05T14:21:16.504Z,100298.41
2023-05-05T14:24:18.767Z,100296.88
2023-05-05T14:27:21.211Z,100290.94
2023-05-05T14:30:23.548Z,100290.34
2023-05-05T14:33:25.914Z,100287.25
2023-05-05T14:36:28.222Z,100287.03
2023-05-05T14:39:31.046Z,100282.19
2023-05-05T14:42:33.361Z,100281.47
2023-05-05T14:45:35.706Z,100276.66
2023-05-05T14:48:38.138Z,100284.84
2023-05-05T14:51:41.086Z,100284.28
2023-05-05T14:54:43.386Z,100286.63
2023-05-05T14:57:45.703Z,100285.19
2023-05-05T15:00:48.368Z,100279.75
2023-05-05T15:03:51.950Z,100275.47
2023-05-05T15:06:54.319Z,100289.50
2023-05-05T15:09:56.593Z,100279.84
2023-05-05T15:12:59.004Z,100284.19
2023-05-05T15:16:01.445Z,100278.88
2023-05-05T15:19:03.798Z,100269.13
2023-05-05T15:22:06.027Z,100265.81
2023-05-05T15:25:12.435Z,100279.31
2023-05-05T15:28:14.846Z,100276.00
2023-05-05T15:31:17.321Z,100268.34
2023-05-05T15:34:19.653Z,100269.84
2023-05-05T15:37:21.986Z,100257.28
2023-05-05T15:40:24.375Z,100274.47
2023-05-05T15:43:26.752Z,100271.97
2023-05-05T15:46:32.275Z,100274.47
2023-05-05T15:49:34.591Z,100264.03
2023-05-05T15:52:36.968Z,100268.66
2023-05-05T15:55:40.260Z,100268.16
2023-05-05T15:58:42.535Z,100263.44
2023-05-05T16:01:44.825Z,100273.69
2023-05-05T16:04:47.122Z,100260.59
2023-05-05T16:07:49.398Z,100250.75
2023-05-05T16:10:51.687Z,100256.19
2023-05-05T16:13:54.005Z,100257.78
2023-05-05T16:16:56.831Z,100250.81
2023-05-05T16:19:59.136Z,100235.66
2023-05-05T16:23:01.400Z,100252.56
2023-05-05T16:26:04.210Z,100244.75
2023-05-05T16:29:07.723Z,100254.31
2023-05-05T16:32:09.995Z,100252.69
2023-05-05T16:35:12.368Z,100247.25
2023-05-05T16:38:14.833Z,100240.81
2023-05-05T16:41:17.374Z,100253.56
2023-05-05T16:44:19.684Z,100258.22
2023-05-05T16:47:21.966Z,100247.44
2023-05-05T16:50:24.299Z,100256.78
2023-05-05T16:53:26.601Z,100254.59
2023-05-05T16:56:28.923Z,100244.00
2023-05-05T16:59:31.692Z,100254.84
2023-05-05T17:02:35.366Z,100246.28
2023-05-05T17:05:37.923Z,100250.06
2023-05-05T17:08:40.432Z,100243.66
2023-05-05T17:11:42.778Z,100250.16
2023-05-05T17:14:48.012Z,100234.88
2023-05-05T17:17:50.373Z,100248.13
2023-05-05T17:20:52.910Z,100245.28
2023-05-05T17:23:55.206Z,100246.66
2023-05-05T17:26:57.514Z,100245.09
2023-05-05T17:29:59.778Z,100238.16
2023-05-05T17:33:02.126Z,100238.38
2023-05-05T17:36:04.958Z,100239.84
2023-05-05T17:39:07.498Z,100250.69
2023-05-05T17:42:09.849Z,100247.22
2023-05-05T17:45:12.208Z,100244.47
2023-05-05T17:48:14.758Z,100254.38
2023-05-05T17:51:17.151Z,100250.13
2023-05-05T17:54:19.457Z,100252.28
2023-05-05T17:57:22.843Z,100252.16
2023-05-05T18:00:25.431Z,100254.84
2023-05-05T18:03:27.767Z,100250.53
2023-05-05T18:06:30.098Z,100261.56
2023-05-05T18:09:32.608Z,100254.84
2023-05-05T18:12:34.916Z,100259.50
2023-05-05T18:15:37.231Z,100254.44
2023-05-05T18:18:41.192Z,100266.31
2023-05-05T18:21:43.527Z,100265.25
2023-05-05T18:24:46.707Z,100261.22
2023-05-05T18:27:48.975Z,100271.38
2023-05-05T18:30:51.321Z,100271.81
2023-05-05T18:33:56.690Z,100267.78
2023-05-05T18:36:58.952Z,100259.53
2023-05-05T18:40:01.235Z,100265.84
2023-05-05T18:43:03.675Z,100273.97
2023-05-05T18:46:05.941Z,100272.38
2023-05-05T18:49:08.474Z,100274.91
2023-05-05T18:52:10.796Z,100281.69
2023-05-05T18:55:13.126Z,100283.88
2023-05-05T18:58:16.836Z,100278.63
2023-05-05T19:01:19.253Z,100289.53
2023-05-05T19:04:30.813Z,100292.25
2023-05-05T19:07:35.839Z,100296.63
2023-05-05T19:10:38.382Z,100302.88
2023-05-05T19:13:41.105Z,100297.25
2023-05-05T19:16:43.473Z,100300.28
2023-05-05T19:19:45.830Z,100301.91
2023-05-05T19:22:48.262Z,100296.53
2023-05-05T19:25:53.827Z,100301.38
2023-05-05T19:28:56.162Z,100284.97
2023-05-05T19:31:58.547Z,100289.31
2023-05-05T19:35:01.547Z,100288.53
2023-05-05T19:38:03.768Z,100288.56
2023-05-05T19:41:06.151Z,100294.50
2023-05-05T19:44:08.431Z,100296.09
2023-05-05T19:47:11.233Z,100298.56
2023-05-05T19:50:15.450Z,100298.56
2023-05-05T19:53:17.745Z,100293.97
2023-05-05T19:56:20.052Z,100289.41
2023-05-05T19:59:23.775Z,100301.50
2023-05-05T20:02:27.277Z,100293.69
2023-05-05T20:05:29.614Z,100295.31
2023-05-05T20:08:31.855Z,100301.78
2023-05-05T20:11:34.183Z,100291.53
2023-05-05T20:14:36.446Z,100305.03
2023-05-05T20:17:38.922Z,100298.00
2023-05-05T20:20:41.258Z,100286.69
2023-05-05T20:23:45.242Z,100299.88
2023-05-05T20:26:47.650Z,100289.88
2023-05-05T20:29:49.944Z,100280.19
2023-05-05T20:32:53.586Z,100298.22
2023-05-05T20:35:56.062Z,100287.16
2023-05-05T20:38:58.366Z,100296.88
2023-05-05T20:42:01.205Z,100296.31
2023-05-05T20:45:03.802Z,100294.69
2023-05-05T20:48:09.870Z,100299.00
2023-05-05T20:51:12.246Z,100292.00
2023-05-05T20:54:14.614Z,100292.44
2023-05-05T20:57:16.909Z,100294.84
2023-05-05T21:00:19.195Z,100292.69
2023-05-05T21:03:21.709Z,100282.72
2023-05-05T21:06:24.406Z,100293.50
2023-05-05T21:09:26.928Z,100281.34
2023-05-05T21:12:29.844Z,100282.44
2023-05-05T21:15:32.150Z,100278.31
2023-05-05T21:18:34.474Z,100298.53
2023-05-05T21:21:36.748Z,100289.09
2023-05-05T21:24:39.235Z,100269.66
2023-05-05T21:27:41.647Z,100280.72
2023-05-05T21:30:45.271Z,100282.84
2023-05-05T21:33:50.599Z,100269.34
2023-05-05T21:36:52.854Z,100271.72
2023-05-05T21:39:55.141Z,100280.06
2023-05-05T21:42:57.430Z,100281.94
2023-05-05T21:46:00.160Z,100267.34
2023-05-05T21:49:14.433Z,100256.03
2023-05-05T21:52:17.264Z,100261.94
2023-05-05T21:55:19.704Z,100275.13
2023-05-05T21:58:23.841Z,100262.50
2023-05-05T22:01:26.191Z,100246.56
2023-05-05T22:04:28.442Z,100244.38
2023-05-05T22:07:32.826Z,100245.72
2023-05-05T22:10:35.378Z,100255.31
2023-05-05T22:13:39.069Z,100246.78
2023-05-05T22:16:41.571Z,100245.19
2023-05-05T22:19:43.885Z,100258.66
2023-05-05T22:22:46.188Z,100263.72
2023-05-05T22:25:48.426Z,100250.16
2023-05-05T22:28:50.786Z,100245.88
2023-05-05T22:31:53.327Z,100250.56
2023-05-05T22:34:55.735Z,100254.91
2023-05-05T22:37:58.060Z,100264.56
2023-05-05T22:41:00.359Z,100255.97
2023-05-05T22:44:02.645Z,100260.72
2023-05-05T22:47:04.984Z,100272.84
2023-05-05T22:50:08.231Z,100271.78
2023-05-05T22:53:10.693Z,100267.19
2023-05-05T22:56:13.041Z,100283.53
2023-05-05T22:59:15.601Z,100274.63
2023-05-05T23:02:18.202Z,100273.00
2023-05-05T23:05:20.777Z,100266.28
2023-05-05T23:08:24.098Z,100274.31
2023-05-05T23:11:26.841Z,100276.41
2023-05-05T23:14:29.116Z,100271.09
2023-05-05T23:17:31.450Z,100270.81
2023-05-05T23:20:33.735Z,100271.22
2023-05-05T23:23:36.230Z,100257.13
2023-05-05T23:26:38.551Z,100266.19
2023-05-05T23:29:40.931Z,100268.88
2023-05-05T23:32:44.995Z,100265.66
2023-05-05T23:35:47.966Z,100266.16
2023-05-05T23:38:50.259Z,100261.84
2023-05-05T23:41:52.506Z,100241.88
2023-05-05T23:44:54.774Z,100266.69
2023-05-05T23:47:57.063Z,100253.66
2023-05-05T23:50:59.331Z,100255.53
2023-05-05T23:54:02.027Z,100253.09
2023-05-05T23:57:04.383Z,100254.16
